createdAt,value
2019-03-10T00:01:06.139Z,97572.60
2019-03-10T00:02:14.426Z,97546.65
2019-03-10T00:03:22.324Z,97559.73
2019-03-10T00:04:30.318Z,97545.67
2019-03-10T00:05:38.465Z,97568.98
2019-03-10T00:06:46.608Z,97551.80
2019-03-10T00:07:54.666Z,97566.69
2019-03-10T00:09:04.691Z,97555.28
2019-03-10T00:10:13.322Z,97540.25
2019-03-10T00:11:21.372Z,97562.58
2019-03-10T00:12:29.557Z,97552.88
2019-03-10T00:13:37.567Z,97546.61
2019-03-10T00:14:45.743Z,97545.14
2019-03-10T00:15:53.896Z,97557.53
2019-03-10T00:17:02.125Z,97549.11
2019-03-10T00:18:10.816Z,97550.44
2019-03-10T00:19:18.953Z,97550.30
2019-03-10T00:20:27.054Z,97563.52
2019-03-10T00:21:35.246Z,97554.27
2019-03-10T00:22:43.246Z,97555.58
2019-03-10T00:23:51.340Z,97542.36
2019-03-10T00:24:59.537Z,97554.75
2019-03-10T00:26:07.852Z,97548.14
2019-03-10T00:27:16.037Z,97569.78
2019-03-10T00:28:24.015Z,97561.36
2019-03-10T00:29:32.588Z,97612.57
2019-03-10T00:30:41.349Z,97610.55
2019-03-10T00:31:49.299Z,97646.25
2019-03-10T00:32:57.655Z,97698.30
2019-03-10T00:34:06.173Z,97712.84
2019-03-10T00:35:14.681Z,97738.30
2019-03-10T00:36:24.401Z,97746.23
2019-03-10T00:37:32.612Z,97708.41
2019-03-10T00:38:51.051Z,97741.13
2019-03-10T00:40:51.560Z,97723.23
2019-03-10T00:42:32.667Z,97738.16
2019-03-10T00:44:20.250Z,97740.67
2019-03-10T00:46:24.611Z,97733.03
2019-03-10T00:48:01.694Z,97725.45
2019-03-10T00:49:47.021Z,97728.77
2019-03-10T00:51:35.567Z,97718.55
2019-03-10T00:53:02.611Z,97708.00
2019-03-10T00:54:10.850Z,97711.98
2019-03-10T00:55:19.161Z,97717.27
2019-03-10T00:56:27.512Z,97720.31
2019-03-10T00:57:35.773Z,97718.39
2019-03-10T00:58:44.142Z,97729.22
2019-03-10T00:59:52.734Z,97694.77
2019-03-10T01:01:00.771Z,97736.92
2019-03-10T01:02:09.228Z,97732.61
2019-03-10T01:03:17.656Z,97735.83
2019-03-10T01:04:25.737Z,97729.98
2019-03-10T01:05:33.871Z,97738.52
2019-03-10T01:06:42.259Z,97745.95
2019-03-10T01:07:50.388Z,97745.48
2019-03-10T01:08:59.110Z,97748.38
2019-03-10T01:10:09.510Z,97754.23
2019-03-10T01:11:18.214Z,97747.63
2019-03-10T01:12:26.806Z,97745.73
2019-03-10T01:13:35.004Z,97753.05
2019-03-10T01:14:43.817Z,97762.77
2019-03-10T01:15:52.647Z,97785.81
2019-03-10T01:17:02.086Z,97765.30
2019-03-10T01:19:06.307Z,97761.34
2019-03-10T01:20:17.260Z,97774.41
2019-03-10T01:21:27.361Z,97761.34
2019-03-10T01:22:35.668Z,97762.66
2019-03-10T01:23:43.770Z,97775.86
2019-03-10T01:24:51.808Z,97770.23
2019-03-10T01:26:00.687Z,97782.10
2019-03-10T01:27:09.141Z,97769.39
2019-03-10T01:28:17.612Z,97785.34
2019-03-10T01:29:25.767Z,97786.67
2019-03-10T01:30:38.286Z,97788.70
2019-03-10T01:32:05.687Z,97801.77
2019-03-10T01:33:23.606Z,97785.94
2019-03-10T01:34:55.524Z,97806.34
2019-03-10T01:36:04.141Z,97806.34
2019-03-10T01:37:12.704Z,97816.53
2019-03-10T01:38:20.985Z,97806.91
2019-03-10T01:39:29.474Z,97795.03
2019-03-10T01:40:37.663Z,97821.42
2019-03-10T01:41:45.920Z,97812.09
2019-03-10T01:42:54.464Z,97808.49
2019-03-10T01:44:02.670Z,97830.44
2019-03-10T01:45:13.566Z,97840.64
2019-03-10T01:46:21.698Z,97855.52
2019-03-10T01:47:29.697Z,97826.48
2019-03-10T01:48:37.853Z,97838.00
2019-03-10T01:49:46.012Z,97838.22
2019-03-10T01:50:54.112Z,97871.69
2019-03-10T01:52:02.312Z,97851.06
2019-03-10T01:53:10.259Z,97857.18
2019-03-10T01:54:18.709Z,97837.87
2019-03-10T01:55:26.709Z,97854.31
2019-03-10T01:56:34.704Z,97879.98
2019-03-10T01:57:42.911Z,97841.81
2019-03-10T01:58:51.302Z,97870.00
2019-03-10T01:59:59.299Z,97881.52
2019-03-10T02:01:07.588Z,97876.84
2019-03-10T02:02:24.813Z,97862.94
2019-03-10T02:03:25.259Z,97868.79
2019-03-10T02:04:33.852Z,97856.56
2019-03-10T02:05:42.210Z,97887.98
2019-03-10T02:06:50.238Z,97886.55
2019-03-10T02:07:58.644Z,97896.38
2019-03-10T02:09:07.657Z,97902.62
2019-03-10T02:10:16.034Z,97891.58
2019-03-10T02:11:24.161Z,97902.62
2019-03-10T02:12:32.339Z,97899.98
2019-03-10T02:13:40.426Z,97894.22
2019-03-10T02:14:48.351Z,97957.06
2019-03-10T02:15:56.533Z,97911.86
2019-03-10T02:17:04.937Z,97921.09
2019-03-10T02:18:13.250Z,97918.80
2019-03-10T02:19:21.265Z,97931.16
2019-03-10T02:20:29.450Z,97948.78
2019-03-10T02:21:37.545Z,97936.80
2019-03-10T02:22:45.951Z,97911.94
2019-03-10T02:23:54.290Z,97923.24
2019-03-10T02:25:02.414Z,97922.77
2019-03-10T02:26:10.497Z,97945.31
2019-03-10T02:27:18.888Z,97936.17
2019-03-10T02:28:26.903Z,97969.14
2019-03-10T02:29:34.765Z,97955.95
2019-03-10T02:30:42.787Z,97967.11
2019-03-10T02:31:51.220Z,98011.11
2019-03-10T02:32:59.210Z,97972.02
2019-03-10T02:34:07.323Z,97949.24
2019-03-10T02:35:15.915Z,97981.37
2019-03-10T02:36:24.109Z,97966.98
2019-03-10T02:37:32.541Z,98001.16
2019-03-10T02:38:40.615Z,97991.66
2019-03-10T02:39:48.710Z,97999.81
2019-03-10T02:40:56.973Z,98007.13
2019-03-10T02:42:05.283Z,97980.03
2019-03-10T02:43:13.433Z,97999.69
2019-03-10T02:44:21.808Z,98005.80
2019-03-10T02:45:30.081Z,98006.17
2019-03-10T02:46:38.243Z,98015.40
2019-03-10T02:47:46.353Z,97991.30
2019-03-10T02:48:54.253Z,98016.00
2019-03-10T02:50:02.310Z,98000.17
2019-03-10T02:51:10.897Z,98009.41
2019-03-10T02:52:25.624Z,97997.17
2019-03-10T02:53:33.583Z,98013.48
2019-03-10T02:54:41.780Z,98004.97
2019-03-10T02:55:49.970Z,98004.25
2019-03-10T02:56:57.927Z,98014.80
2019-03-10T02:58:05.795Z,97998.49
2019-03-10T02:59:13.922Z,98001.25
2019-03-10T03:00:22.028Z,97993.22
2019-03-10T03:01:30.094Z,97999.93
2019-03-10T03:02:38.099Z,97999.57
2019-03-10T03:03:46.185Z,98025.83
2019-03-10T03:04:54.127Z,98010.48
2019-03-10T03:06:02.047Z,97976.31
2019-03-10T03:07:10.320Z,98019.23
2019-03-10T03:08:18.619Z,98015.39
2019-03-10T03:09:26.661Z,98023.39
2019-03-10T03:10:34.715Z,98015.88
2019-03-10T03:11:43.423Z,98017.20
2019-03-10T03:12:51.626Z,98022.47
2019-03-10T03:13:59.869Z,98010.69
2019-03-10T03:15:10.793Z,98017.64
2019-03-10T03:16:19.426Z,98029.16
2019-03-10T03:17:27.736Z,98008.89
2019-03-10T03:18:35.985Z,98010.33
2019-03-10T03:19:44.111Z,98008.17
2019-03-10T03:20:51.980Z,97988.98
2019-03-10T03:22:00.030Z,98015.72
2019-03-10T03:23:08.300Z,98009.73
2019-03-10T03:24:16.539Z,98012.00
2019-03-10T03:25:25.075Z,98012.84
2019-03-10T03:26:33.084Z,98019.16
2019-03-10T03:27:41.437Z,98017.84
2019-03-10T03:28:49.702Z,98023.23
2019-03-10T03:29:57.693Z,98015.08
2019-03-10T03:31:05.823Z,98019.87
2019-03-10T03:32:13.971Z,98013.01
2019-03-10T03:33:22.438Z,98020.00
2019-03-10T03:34:30.417Z,98019.16
2019-03-10T03:35:51.458Z,98008.70
2019-03-10T03:36:59.654Z,98012.17
2019-03-10T03:38:07.645Z,97988.20
2019-03-10T03:39:26.709Z,98020.80
2019-03-10T03:40:34.950Z,98022.72
2019-03-10T03:41:43.128Z,98030.62
2019-03-10T03:42:51.201Z,98018.28
2019-03-10T03:43:59.387Z,98040.77
2019-03-10T03:45:08.163Z,98011.77
2019-03-10T03:46:16.342Z,97989.95
2019-03-10T03:47:24.624Z,98026.51
2019-03-10T03:48:32.949Z,98026.51
2019-03-10T03:49:40.932Z,98034.78
2019-03-10T03:50:49.029Z,98034.30
2019-03-10T03:51:57.021Z,98050.13
2019-03-10T03:53:05.014Z,98044.38
2019-03-10T03:54:13.259Z,98035.73
2019-03-10T03:55:21.539Z,98035.37
2019-03-10T03:56:29.714Z,98037.42
2019-03-10T03:57:38.120Z,98037.89
2019-03-10T03:58:46.241Z,98036.70
2019-03-10T03:59:54.109Z,98040.65
2019-03-10T04:01:03.943Z,98045.92
2019-03-10T04:02:13.668Z,98048.20
2019-03-10T04:03:21.992Z,98034.06
2019-03-10T04:04:30.598Z,98047.72
2019-03-10T04:05:38.882Z,98050.83
2019-03-10T04:06:47.192Z,98048.56
2019-03-10T04:07:55.250Z,98058.74
2019-03-10T04:09:04.919Z,98067.61
2019-03-10T04:10:13.216Z,98072.48
2019-03-10T04:11:21.199Z,98077.98
2019-03-10T04:12:29.624Z,98092.12
2019-03-10T04:13:38.030Z,98083.38
2019-03-10T04:14:46.011Z,98093.67
2019-03-10T04:15:55.170Z,98084.45
2019-03-10T04:17:03.019Z,98086.80
2019-03-10T04:18:11.447Z,98091.23
2019-03-10T04:19:19.442Z,98090.99
2019-03-10T04:20:28.177Z,98104.64
2019-03-10T04:21:36.390Z,98100.05
2019-03-10T04:22:44.562Z,98098.01
2019-03-10T04:23:52.891Z,98107.34
2019-03-10T04:25:01.176Z,98114.02
2019-03-10T04:26:09.381Z,98118.08
2019-03-10T04:27:17.377Z,98116.03
2019-03-10T04:28:25.710Z,98117.94
2019-03-10T04:29:34.084Z,98115.87
2019-03-10T04:30:42.387Z,98114.19
2019-03-10T04:31:50.686Z,98125.31
2019-03-10T04:32:58.875Z,98129.38
2019-03-10T04:34:08.175Z,98118.95
2019-03-10T04:35:16.814Z,98134.37
2019-03-10T04:36:26.289Z,98131.00
2019-03-10T04:37:35.899Z,98122.84
2019-03-10T04:38:44.285Z,98145.72
2019-03-10T04:39:52.583Z,98119.37
2019-03-10T04:41:00.880Z,98135.29
2019-03-10T04:42:09.082Z,98126.52
2019-03-10T04:43:17.077Z,98138.77
2019-03-10T04:44:25.130Z,98132.17
2019-03-10T04:45:33.379Z,98137.45
2019-03-10T04:46:41.672Z,98139.13
2019-03-10T04:47:49.524Z,98139.13
2019-03-10T04:48:57.467Z,98132.55
2019-03-10T04:50:07.712Z,98131.70
2019-03-10T04:51:16.005Z,98140.45
2019-03-10T04:52:24.083Z,98136.13
2019-03-10T04:53:32.714Z,98141.41
2019-03-10T04:54:59.358Z,98131.78
2019-03-10T04:56:21.476Z,98140.16
2019-03-10T04:57:29.793Z,98134.53
2019-03-10T04:58:39.526Z,98130.21
2019-03-10T04:59:47.924Z,98138.59
2019-03-10T05:00:57.968Z,98133.91
2019-03-10T05:02:06.458Z,98127.44
2019-03-10T05:03:14.863Z,98133.15
2019-03-10T05:04:22.879Z,98128.10
2019-03-10T05:05:30.969Z,98125.47
2019-03-10T05:06:39.072Z,98123.67
2019-03-10T05:07:47.120Z,98122.47
2019-03-10T05:08:55.447Z,98125.83
2019-03-10T05:10:04.213Z,98126.06
2019-03-10T05:11:12.366Z,98127.27
2019-03-10T05:12:20.426Z,98127.27
2019-03-10T05:13:29.087Z,98118.88
2019-03-10T05:14:37.013Z,98117.09
2019-03-10T05:15:45.256Z,98117.45
2019-03-10T05:16:53.202Z,98119.25
2019-03-10T05:18:01.327Z,98126.67
2019-03-10T05:19:27.601Z,98120.56
2019-03-10T05:20:35.723Z,98135.05
2019-03-10T05:21:43.794Z,98128.47
2019-03-10T05:22:51.964Z,98130.62
2019-03-10T05:24:03.871Z,98134.58
2019-03-10T05:25:16.393Z,98135.05
2019-03-10T05:26:24.640Z,98139.84
2019-03-10T05:27:33.069Z,98131.94
2019-03-10T05:28:45.518Z,98126.20
2019-03-10T05:29:53.586Z,98130.15
2019-03-10T05:31:01.892Z,98133.63
2019-03-10T05:32:09.800Z,98129.20
2019-03-10T05:33:17.715Z,98133.06
2019-03-10T05:34:25.850Z,98129.59
2019-03-10T05:35:34.048Z,98132.30
2019-03-10T05:36:42.279Z,98139.73
2019-03-10T05:37:50.278Z,98141.45
2019-03-10T05:38:58.058Z,98138.81
2019-03-10T05:40:08.551Z,98140.13
2019-03-10T05:41:17.049Z,98144.08
2019-03-10T05:42:25.177Z,98140.50
2019-03-10T05:43:33.289Z,98135.12
2019-03-10T05:44:41.367Z,98142.06
2019-03-10T05:45:49.374Z,98145.55
2019-03-10T05:46:57.665Z,98160.77
2019-03-10T05:48:06.070Z,98146.27
2019-03-10T05:49:14.256Z,98144.03
2019-03-10T05:50:22.340Z,98150.14
2019-03-10T05:51:30.591Z,98146.27
2019-03-10T05:52:38.668Z,98150.23
2019-03-10T05:53:46.860Z,98148.91
2019-03-10T05:54:54.879Z,98150.63
2019-03-10T05:56:02.988Z,98156.73
2019-03-10T05:57:11.253Z,98154.94
2019-03-10T05:58:19.433Z,98159.73
2019-03-10T05:59:27.528Z,98158.30
2019-03-10T06:00:42.566Z,98157.35
2019-03-10T06:01:45.704Z,98145.49
2019-03-10T06:02:53.764Z,98153.28
2019-03-10T06:04:01.785Z,98153.28
2019-03-10T06:05:10.272Z,98153.66
2019-03-10T06:06:18.485Z,98152.25
2019-03-10T06:07:26.581Z,98145.55
2019-03-10T06:08:34.366Z,98144.13
2019-03-10T06:09:42.379Z,98141.85
2019-03-10T06:10:50.660Z,98147.88
2019-03-10T06:11:58.734Z,98137.70
2019-03-10T06:13:06.853Z,98142.03
2019-03-10T06:14:14.689Z,98134.01
2019-03-10T06:15:22.923Z,98140.95
2019-03-10T06:16:30.894Z,98142.75
2019-03-10T06:17:39.178Z,98149.15
2019-03-10T06:18:47.151Z,98141.69
2019-03-10T06:19:55.128Z,98134.06
2019-03-10T06:21:03.032Z,98138.63
2019-03-10T06:22:11.093Z,98142.03
2019-03-10T06:23:19.234Z,98143.70
2019-03-10T06:24:27.258Z,98131.38
2019-03-10T06:25:35.437Z,98129.83
2019-03-10T06:26:45.875Z,98133.66
2019-03-10T06:27:54.122Z,98139.41
2019-03-10T06:29:02.403Z,98132.82
2019-03-10T06:30:12.628Z,98130.83
2019-03-10T06:31:20.799Z,98123.29
2019-03-10T06:32:29.215Z,98132.68
2019-03-10T06:33:37.307Z,98130.48
2019-03-10T06:34:45.288Z,98140.95
2019-03-10T06:35:53.439Z,98135.56
2019-03-10T06:37:01.436Z,98127.42
2019-03-10T06:38:09.572Z,98133.66
2019-03-10T06:39:17.363Z,98143.16
2019-03-10T06:40:32.180Z,98150.37
2019-03-10T06:41:35.745Z,98140.06
2019-03-10T06:42:43.924Z,98137.23
2019-03-10T06:43:52.049Z,98137.48
2019-03-10T06:45:00.297Z,98137.64
2019-03-10T06:46:08.349Z,98121.70
2019-03-10T06:47:16.523Z,98135.98
2019-03-10T06:48:24.945Z,98119.67
2019-03-10T06:49:33.241Z,98129.55
2019-03-10T06:50:41.579Z,98130.99
2019-03-10T06:51:49.793Z,98129.59
2019-03-10T06:52:57.955Z,98130.67
2019-03-10T06:54:06.171Z,98139.22
2019-03-10T06:55:14.372Z,98139.83
2019-03-10T06:56:22.408Z,98133.12
2019-03-10T06:57:30.978Z,98139.52
2019-03-10T06:58:39.283Z,98122.12
2019-03-10T06:59:49.823Z,98134.27
2019-03-10T07:00:57.491Z,98143.63
2019-03-10T07:02:05.715Z,98134.16
2019-03-10T07:03:13.894Z,98147.16
2019-03-10T07:04:22.068Z,98146.67
2019-03-10T07:05:30.821Z,98150.79
2019-03-10T07:06:38.803Z,98157.16
2019-03-10T07:07:46.909Z,98148.52
2019-03-10T07:08:55.092Z,98143.51
2019-03-10T07:10:03.498Z,98140.52
2019-03-10T07:11:11.626Z,98151.47
2019-03-10T07:12:19.852Z,98147.30
2019-03-10T07:13:28.402Z,98147.33
2019-03-10T07:14:36.395Z,98123.32
2019-03-10T07:15:44.695Z,98140.64
2019-03-10T07:16:52.862Z,98159.24
2019-03-10T07:18:00.984Z,98147.72
2019-03-10T07:19:08.988Z,98143.19
2019-03-10T07:20:22.993Z,98151.34
2019-03-10T07:21:31.124Z,98160.47
2019-03-10T07:22:39.275Z,98163.95
2019-03-10T07:23:47.703Z,98143.30
2019-03-10T07:24:56.125Z,98143.54
2019-03-10T07:26:07.277Z,98168.91
2019-03-10T07:27:15.695Z,98159.41
2019-03-10T07:28:28.402Z,98158.81
2019-03-10T07:29:41.374Z,98165.20
2019-03-10T07:30:54.067Z,98164.24
2019-03-10T07:32:04.183Z,98155.63
2019-03-10T07:33:23.124Z,98155.98
2019-03-10T07:34:42.028Z,98150.09
2019-03-10T07:35:53.119Z,98147.09
2019-03-10T07:37:18.997Z,98153.22
2019-03-10T07:38:33.184Z,98147.58
2019-03-10T07:39:45.607Z,98151.89
2019-03-10T07:40:55.849Z,98150.94
2019-03-10T07:42:14.837Z,98159.70
2019-03-10T07:43:31.026Z,98166.94
2019-03-10T07:44:50.121Z,98147.70
2019-03-10T07:46:00.060Z,98131.99
2019-03-10T07:47:13.060Z,98137.64
2019-03-10T07:48:32.382Z,98147.00
2019-03-10T07:49:42.183Z,98153.03
2019-03-10T07:50:54.213Z,98136.33
2019-03-10T07:52:20.288Z,98147.27
2019-03-10T07:53:24.860Z,98129.83
2019-03-10T07:54:32.935Z,98146.41
2019-03-10T07:55:51.838Z,98127.33
2019-03-10T07:57:17.657Z,98135.85
2019-03-10T07:58:27.484Z,98126.47
2019-03-10T07:59:53.917Z,98139.12
2019-03-10T08:01:12.751Z,98136.86
2019-03-10T08:02:38.454Z,98132.50
2019-03-10T08:03:50.666Z,98128.92
2019-03-10T08:05:09.463Z,98126.30
2019-03-10T08:06:18.890Z,98115.82
2019-03-10T08:07:29.424Z,98124.38
2019-03-10T08:08:42.018Z,98115.83
2019-03-10T08:09:51.615Z,98109.33
2019-03-10T08:11:07.204Z,98111.75
2019-03-10T08:12:16.844Z,98117.14
2019-03-10T08:13:29.151Z,98116.69
2019-03-10T08:14:54.213Z,98116.20
2019-03-10T08:16:16.703Z,98098.53
2019-03-10T08:17:26.219Z,98104.52
2019-03-10T08:18:35.879Z,98116.30
2019-03-10T08:20:01.424Z,98113.05
2019-03-10T08:21:09.162Z,98111.14
2019-03-10T08:22:19.832Z,98107.05
2019-03-10T08:23:45.528Z,98099.95
2019-03-10T08:25:04.185Z,98090.56
2019-03-10T08:26:13.959Z,98087.69
2019-03-10T08:27:32.704Z,98087.56
2019-03-10T08:28:42.144Z,98081.17
2019-03-10T08:29:51.665Z,98086.11
2019-03-10T08:31:04.200Z,98088.36
2019-03-10T08:32:22.519Z,98083.20
2019-03-10T08:33:41.250Z,98086.80
2019-03-10T08:35:07.260Z,98070.05
2019-03-10T08:36:20.013Z,98077.63
2019-03-10T08:37:33.941Z,98092.80
2019-03-10T08:38:52.598Z,98080.63
2019-03-10T08:40:02.181Z,98090.11
2019-03-10T08:41:27.786Z,98085.07
2019-03-10T08:42:40.556Z,98082.28
2019-03-10T08:43:52.797Z,98061.11
2019-03-10T08:45:08.272Z,98068.56
2019-03-10T08:46:21.205Z,98053.39
2019-03-10T08:47:31.799Z,98059.39
2019-03-10T08:48:50.506Z,98044.38
2019-03-10T08:50:00.356Z,98046.75
2019-03-10T08:51:10.183Z,98105.70
2019-03-10T08:52:19.811Z,98048.96
2019-03-10T08:53:46.156Z,98044.75
2019-03-10T08:55:04.253Z,98030.27
2019-03-10T08:56:14.921Z,98061.44
2019-03-10T08:57:25.638Z,98030.59
2019-03-10T08:58:40.920Z,98037.44
2019-03-10T08:59:50.695Z,98030.33
2019-03-10T09:01:16.647Z,98032.03
2019-03-10T09:02:42.993Z,98004.56
2019-03-10T09:03:59.898Z,98029.95
2019-03-10T09:05:10.262Z,98017.54
2019-03-10T09:06:20.551Z,98041.38
2019-03-10T09:07:37.837Z,98020.65
2019-03-10T09:09:04.016Z,98024.48
2019-03-10T09:10:32.406Z,98024.48
2019-03-10T09:11:58.770Z,98022.46
2019-03-10T09:13:08.593Z,98009.56
2019-03-10T09:14:34.034Z,98012.91
2019-03-10T09:15:42.155Z,98012.91
2019-03-10T09:16:59.217Z,98007.27
2019-03-10T09:18:08.937Z,98008.45
2019-03-10T09:19:18.573Z,98009.42
2019-03-10T09:20:31.381Z,98010.75
2019-03-10T09:21:44.712Z,98012.08
2019-03-10T09:23:10.635Z,98004.96
2019-03-10T09:24:32.134Z,97999.08
2019-03-10T09:25:58.604Z,98003.95
2019-03-10T09:27:24.889Z,98002.74
2019-03-10T09:28:55.504Z,97999.33
2019-03-10T09:30:11.988Z,97989.80
2019-03-10T09:31:21.673Z,97994.69
2019-03-10T09:32:40.483Z,97981.19
2019-03-10T09:33:53.051Z,97991.66
2019-03-10T09:35:05.375Z,97984.54
2019-03-10T09:36:23.609Z,97996.67
2019-03-10T09:37:42.269Z,97982.45
2019-03-10T09:38:58.153Z,97993.15
2019-03-10T09:40:22.007Z,97977.34
2019-03-10T09:41:47.805Z,97984.18
2019-03-10T09:43:13.765Z,97982.92
2019-03-10T09:44:28.887Z,97982.77
2019-03-10T09:45:36.610Z,97988.31
2019-03-10T09:47:04.240Z,97982.88
2019-03-10T09:48:25.916Z,97983.50
2019-03-10T09:49:36.167Z,97972.55
2019-03-10T09:50:48.439Z,97969.05
2019-03-10T09:51:58.935Z,97969.40
2019-03-10T09:53:24.742Z,97968.77
2019-03-10T09:54:34.258Z,97964.02
2019-03-10T09:56:01.941Z,97973.75
2019-03-10T09:57:14.413Z,97962.73
2019-03-10T09:58:23.926Z,97971.69
2019-03-10T09:59:33.628Z,97966.68
2019-03-10T10:00:59.313Z,97954.80
2019-03-10T10:02:18.118Z,97973.03
2019-03-10T10:03:27.551Z,97951.95
2019-03-10T10:04:36.910Z,97954.59
2019-03-10T10:06:02.650Z,97951.74
2019-03-10T10:07:12.205Z,97943.06
2019-03-10T10:08:38.188Z,97942.85
2019-03-10T10:10:02.705Z,97939.86
2019-03-10T10:11:28.565Z,97949.98
2019-03-10T10:12:44.236Z,97933.91
2019-03-10T10:14:06.395Z,97937.30
2019-03-10T10:15:14.302Z,97946.44
2019-03-10T10:16:29.825Z,97929.59
2019-03-10T10:17:39.324Z,97928.01
2019-03-10T10:18:54.639Z,97926.63
2019-03-10T10:20:07.116Z,97917.97
2019-03-10T10:21:17.011Z,97917.41
2019-03-10T10:22:29.061Z,97922.37
2019-03-10T10:23:42.722Z,97919.84
2019-03-10T10:24:52.437Z,97903.55
2019-03-10T10:26:05.012Z,97917.94
2019-03-10T10:27:17.398Z,97911.23
2019-03-10T10:28:43.429Z,97910.59
2019-03-10T10:29:57.021Z,97927.85
2019-03-10T10:31:15.892Z,97909.45
2019-03-10T10:32:34.346Z,97912.53
2019-03-10T10:33:59.521Z,97909.80
2019-03-10T10:35:17.863Z,97896.78
2019-03-10T10:36:27.465Z,97912.42
2019-03-10T10:37:39.867Z,97907.95
2019-03-10T10:38:49.445Z,97893.21
2019-03-10T10:39:58.970Z,97912.77
2019-03-10T10:41:24.770Z,97910.60
2019-03-10T10:42:38.687Z,97914.59
2019-03-10T10:43:48.328Z,97924.38
2019-03-10T10:45:14.467Z,97923.84
2019-03-10T10:46:42.248Z,97916.98
2019-03-10T10:48:06.887Z,97909.65
2019-03-10T10:49:16.364Z,97912.30
2019-03-10T10:50:44.513Z,97904.83
2019-03-10T10:52:09.935Z,97901.83
2019-03-10T10:53:37.746Z,97918.11
2019-03-10T10:55:02.388Z,97913.64
2019-03-10T10:56:30.522Z,97889.19
2019-03-10T10:57:39.947Z,97899.09
2019-03-10T10:58:49.767Z,97891.92
2019-03-10T10:59:59.340Z,97902.20
2019-03-10T11:01:27.147Z,97897.50
2019-03-10T11:02:42.671Z,97903.45
2019-03-10T11:04:04.421Z,97895.78
2019-03-10T11:05:23.441Z,97889.76
2019-03-10T11:06:33.058Z,97892.06
2019-03-10T11:08:00.728Z,97897.61
2019-03-10T11:09:20.490Z,97884.18
2019-03-10T11:10:42.175Z,97893.67
2019-03-10T11:11:51.816Z,97883.27
2019-03-10T11:12:59.677Z,97881.30
2019-03-10T11:14:15.363Z,97879.63
2019-03-10T11:15:24.915Z,97874.47
2019-03-10T11:16:37.291Z,97881.22
2019-03-10T11:17:47.046Z,97870.41
2019-03-10T11:18:54.738Z,97867.55
2019-03-10T11:20:02.334Z,97865.02
2019-03-10T11:21:20.856Z,97861.03
2019-03-10T11:22:47.013Z,97859.86
2019-03-10T11:25:13.535Z,97851.66
2019-03-10T11:26:26.420Z,97846.50
2019-03-10T11:27:38.870Z,97846.20
2019-03-10T11:29:03.584Z,97842.71
2019-03-10T11:30:12.837Z,97832.09
2019-03-10T11:31:28.629Z,97839.22
2019-03-10T11:32:51.481Z,97824.27
2019-03-10T11:34:06.993Z,97824.91
2019-03-10T11:35:33.054Z,97822.03
2019-03-10T11:36:40.863Z,97812.73
2019-03-10T11:37:53.551Z,97814.44
2019-03-10T11:39:03.038Z,97805.67
2019-03-10T11:40:29.523Z,97804.01
2019-03-10T11:41:55.430Z,97807.50
2019-03-10T11:43:14.163Z,97807.50
2019-03-10T11:44:40.027Z,97795.89
2019-03-10T11:45:50.974Z,97794.90
2019-03-10T11:47:07.856Z,97794.28
2019-03-10T11:48:17.499Z,97787.34
2019-03-10T11:49:42.486Z,97767.27
2019-03-10T11:50:55.092Z,97785.09
2019-03-10T11:52:07.517Z,97775.30
2019-03-10T11:53:22.640Z,97786.12
2019-03-10T11:54:36.129Z,97769.04
2019-03-10T11:55:44.053Z,97765.45
2019-03-10T11:57:09.961Z,97766.36
2019-03-10T11:58:39.204Z,97755.64
2019-03-10T11:59:58.215Z,97769.11
2019-03-10T12:01:07.896Z,97751.65
2019-03-10T12:02:17.721Z,97765.28
2019-03-10T12:03:39.310Z,97753.81
2019-03-10T12:04:55.068Z,97752.33
2019-03-10T12:06:10.866Z,97754.98
2019-03-10T12:07:37.174Z,97744.30
2019-03-10T12:08:54.067Z,97741.45
2019-03-10T12:10:02.733Z,97738.39
2019-03-10T12:11:10.771Z,97741.05
2019-03-10T12:12:19.041Z,97724.13
2019-03-10T12:13:27.194Z,97723.50
2019-03-10T12:14:35.060Z,97742.10
2019-03-10T12:15:43.277Z,97763.02
2019-03-10T12:16:51.280Z,97716.98
2019-03-10T12:17:59.550Z,97723.44
2019-03-10T12:19:07.704Z,97739.72
2019-03-10T12:20:16.002Z,97719.95
2019-03-10T12:21:24.265Z,97725.42
2019-03-10T12:22:32.372Z,97753.31
2019-03-10T12:23:40.282Z,97724.25
2019-03-10T12:24:48.289Z,97727.39
2019-03-10T12:25:56.385Z,97714.12
2019-03-10T12:27:04.420Z,97724.37
2019-03-10T12:28:12.462Z,97725.36
2019-03-10T12:29:20.206Z,97730.33
2019-03-10T12:30:28.239Z,97725.52
2019-03-10T12:31:36.203Z,97721.69
2019-03-10T12:32:44.128Z,97734.63
2019-03-10T12:33:52.508Z,97714.70
2019-03-10T12:35:00.929Z,97713.99
2019-03-10T12:36:09.056Z,97726.59
2019-03-10T12:37:17.211Z,97724.92
2019-03-10T12:38:25.028Z,97749.81
2019-03-10T12:39:33.146Z,97769.17
2019-03-10T12:40:41.193Z,97736.63
2019-03-10T12:41:57.845Z,97740.57
2019-03-10T12:42:59.055Z,97768.20
2019-03-10T12:44:06.966Z,97727.77
2019-03-10T12:45:15.183Z,97722.73
2019-03-10T12:46:23.092Z,97717.88
2019-03-10T12:47:31.107Z,97726.95
2019-03-10T12:48:38.897Z,97730.09
2019-03-10T12:49:46.623Z,97719.78
2019-03-10T12:50:54.507Z,97718.19
2019-03-10T12:52:02.471Z,97702.69
2019-03-10T12:53:10.567Z,97711.56
2019-03-10T12:54:18.560Z,97705.88
2019-03-10T12:55:26.679Z,97710.12
2019-03-10T12:56:34.490Z,97712.59
2019-03-10T12:57:42.446Z,97708.76
2019-03-10T12:58:50.512Z,97706.10
2019-03-10T12:59:58.658Z,97708.41
2019-03-10T13:01:07.134Z,97711.91
2019-03-10T13:02:16.183Z,97697.23
2019-03-10T13:03:24.387Z,97695.86
2019-03-10T13:04:32.303Z,97702.08
2019-03-10T13:05:40.292Z,97689.58
2019-03-10T13:06:48.316Z,97701.96
2019-03-10T13:07:56.473Z,97691.34
2019-03-10T13:09:05.808Z,97696.80
2019-03-10T13:10:14.474Z,97687.14
2019-03-10T13:11:22.610Z,97683.16
2019-03-10T13:12:31.048Z,97672.56
2019-03-10T13:13:39.001Z,97673.55
2019-03-10T13:14:46.689Z,97682.48
2019-03-10T13:15:54.457Z,97675.17
2019-03-10T13:17:02.781Z,97679.64
2019-03-10T13:18:10.889Z,97674.94
2019-03-10T13:19:19.050Z,97675.58
2019-03-10T13:20:28.560Z,97670.92
2019-03-10T13:21:36.832Z,97671.06
2019-03-10T13:22:44.839Z,97668.19
2019-03-10T13:23:52.848Z,97667.50
2019-03-10T13:25:00.795Z,97668.26
2019-03-10T13:26:10.330Z,97663.22
2019-03-10T13:27:18.388Z,97659.20
2019-03-10T13:28:26.170Z,97662.95
2019-03-10T13:29:34.030Z,97652.98
2019-03-10T13:30:42.543Z,97647.68
2019-03-10T13:31:50.408Z,97640.37
2019-03-10T13:32:58.797Z,97648.31
2019-03-10T13:34:07.211Z,97647.83
2019-03-10T13:35:15.501Z,97642.79
2019-03-10T13:36:23.957Z,97646.08
2019-03-10T13:37:32.004Z,97645.73
2019-03-10T13:38:39.890Z,97669.39
2019-03-10T13:39:47.685Z,97655.57
2019-03-10T13:40:55.977Z,97662.26
2019-03-10T13:42:04.048Z,97640.52
2019-03-10T13:43:12.522Z,97646.22
2019-03-10T13:44:20.850Z,97640.50
2019-03-10T13:45:28.984Z,97646.72
2019-03-10T13:46:37.096Z,97645.45
2019-03-10T13:47:45.143Z,97627.20
2019-03-10T13:48:53.174Z,97631.93
2019-03-10T13:50:01.007Z,97632.83
2019-03-10T13:51:09.385Z,97632.63
2019-03-10T13:52:17.767Z,97627.96
2019-03-10T13:53:25.814Z,97628.56
2019-03-10T13:54:33.564Z,97624.39
2019-03-10T13:55:41.525Z,97615.27
2019-03-10T13:56:49.597Z,97619.23
2019-03-10T13:57:57.548Z,97613.59
2019-03-10T13:59:05.608Z,97600.50
2019-03-10T14:00:27.226Z,97613.86
2019-03-10T14:01:35.061Z,97585.70
2019-03-10T14:02:42.957Z,97592.96